createdAt,value
2019-04-21T00:00:54.167Z,10.77
2019-04-21T00:03:27.498Z,10.40
2019-04-21T00:06:18.374Z,11.37
2019-04-21T00:08:48.851Z,12.90
2019-04-21T00:11:20.700Z,12.50
2019-04-21T00:13:42.755Z,13.57
2019-04-21T00:16:03.145Z,10.83
2019-04-21T00:18:44.101Z,11.10
2019-04-21T00:21:12.154Z,10.17
2019-04-21T00:23:53.819Z,10.60
2019-04-21T00:26:23.829Z,10.70
2019-04-21T00:29:03.924Z,10.80
2019-04-21T00:31:24.649Z,11.47
2019-04-21T00:33:44.348Z,11.20
2019-04-21T00:36:16.916Z,10.23
2019-04-21T00:39:14.325Z,11.70
2019-04-21T00:41:36.802Z,10.37
2019-04-21T00:43:57.019Z,11.00
2019-04-21T00:46:32.239Z,10.97
2019-04-21T00:49:08.518Z,11.10
2019-04-21T00:51:54.276Z,10.23
2019-04-21T00:54:24.668Z,9.93
2019-04-21T00:56:48.294Z,10.77
2019-04-21T00:59:19.591Z,10.10
2019-04-21T01:02:09.459Z,11.47
2019-04-21T01:04:42.970Z,12.20
2019-04-21T01:07:17.639Z,10.47
2019-04-21T01:09:36.674Z,12.30
2019-04-21T01:12:12.733Z,10.00
2019-04-21T01:14:51.970Z,11.67
2019-04-21T01:17:17.843Z,10.00
2019-04-21T01:19:46.872Z,9.57
2019-04-21T01:21:59.092Z,10.07
2019-04-21T01:24:33.042Z,9.87
2019-04-21T01:27:11.134Z,10.40
2019-04-21T01:29:53.995Z,8.67
2019-04-21T01:32:23.651Z,9.63
2019-04-21T01:34:51.093Z,10.10
2019-04-21T01:37:28.513Z,9.90
2019-04-21T01:40:04.831Z,10.93
2019-04-21T01:42:28.549Z,9.73
2019-04-21T01:44:59.903Z,9.67
2019-04-21T01:47:26.199Z,9.60
2019-04-21T01:49:52.729Z,9.40
2019-04-21T01:55:14.043Z,9.77
2019-04-21T01:57:37.544Z,9.27
2019-04-21T02:00:37.882Z,10.00
2019-04-21T02:03:31.515Z,10.33
2019-04-21T02:05:44.384Z,11.13
2019-04-21T02:08:10.952Z,9.47
2019-04-21T02:10:54.625Z,10.90
2019-04-21T02:13:11.850Z,10.23
2019-04-21T02:15:48.812Z,10.60
2019-04-21T02:18:24.778Z,11.00
2019-04-21T02:20:40.992Z,10.20
2019-04-21T02:26:02.100Z,10.10
2019-04-21T02:28:36.880Z,11.20
2019-04-21T02:31:18.620Z,9.27
2019-04-21T02:36:22.737Z,10.30
2019-04-21T02:38:46.183Z,9.97
2019-04-21T02:41:05.806Z,9.30
2019-04-21T02:43:50.137Z,9.70
2019-04-21T02:51:25.586Z,10.90
2019-04-21T02:54:31.464Z,11.00
2019-04-21T02:56:28.052Z,9.87
2019-04-21T02:58:59.409Z,10.30
2019-04-21T03:04:22.267Z,9.57
2019-04-21T03:07:09.644Z,11.00
2019-04-21T03:09:31.074Z,10.77
2019-04-21T03:12:16.307Z,11.80
2019-04-21T03:17:09.645Z,9.20
2019-04-21T03:19:46.130Z,11.33
2019-04-21T03:22:24.967Z,9.70
2019-04-21T03:25:22.919Z,9.50
2019-04-21T03:27:40.668Z,9.70
2019-04-21T03:33:13.097Z,9.60
2019-04-21T03:40:11.282Z,9.27
2019-04-21T03:42:42.537Z,10.07
2019-04-21T03:45:14.415Z,11.90
2019-04-21T03:47:46.352Z,9.90
2019-04-21T03:50:11.075Z,9.93
2019-04-21T03:52:48.402Z,10.40
2019-04-21T03:55:50.936Z,10.43
2019-04-21T04:03:35.146Z,9.13
2019-04-21T04:08:50.177Z,9.90
2019-04-21T04:11:19.673Z,9.70
2019-04-21T04:13:56.378Z,9.47
2019-04-21T04:21:20.781Z,9.10
2019-04-21T04:26:26.014Z,8.97
2019-04-21T04:28:56.338Z,8.97
2019-04-21T04:31:30.356Z,10.67
2019-04-21T04:36:33.855Z,9.30
2019-04-21T04:39:25.794Z,9.60
2019-04-21T04:42:04.942Z,10.63
2019-04-21T04:44:57.068Z,8.83
2019-04-21T04:52:27.635Z,9.13
2019-04-21T04:54:47.244Z,9.60
2019-04-21T05:04:46.281Z,8.87
2019-04-21T05:07:15.992Z,10.17
2019-04-21T05:09:44.640Z,9.20
2019-04-21T05:12:11.907Z,10.30
2019-04-21T05:14:46.658Z,9.53
2019-04-21T05:17:28.702Z,9.70
2019-04-21T05:20:03.930Z,11.90
2019-04-21T05:24:37.733Z,9.37
2019-04-21T05:27:12.639Z,9.70
2019-04-21T05:29:58.756Z,8.73
2019-04-21T05:32:26.463Z,9.80
2019-04-21T05:34:56.927Z,9.57
2019-04-21T05:37:29.318Z,10.13
2019-04-21T05:40:00.535Z,9.57
2019-04-21T05:42:28.398Z,9.20
2019-04-21T05:47:49.138Z,11.10
2019-04-21T05:50:16.600Z,10.27
2019-04-21T05:52:46.003Z,9.10
2019-04-21T05:55:34.220Z,10.10
2019-04-21T05:57:58.538Z,9.00
2019-04-21T06:00:46.715Z,10.63
2019-04-21T06:03:05.618Z,11.10
2019-04-21T06:05:47.373Z,10.13
2019-04-21T06:08:07.203Z,10.00
2019-04-21T06:10:43.674Z,10.30
2019-04-21T06:13:13.117Z,9.63
2019-04-21T06:15:44.608Z,11.03
2019-04-21T06:18:12.923Z,11.17
2019-04-21T06:20:40.874Z,11.53
2019-04-21T06:23:16.001Z,9.67
2019-04-21T06:25:58.247Z,9.90
2019-04-21T06:28:19.285Z,10.20
2019-04-21T06:33:19.643Z,11.73
2019-04-21T06:36:11.326Z,9.60
2019-04-21T06:38:54.296Z,9.07
2019-04-21T06:41:23.752Z,11.00
2019-04-21T06:43:51.616Z,11.83
2019-04-21T06:46:20.095Z,13.73
2019-04-21T06:48:51.793Z,9.40
2019-04-21T06:51:24.899Z,9.70
2019-04-21T06:53:59.636Z,14.07
2019-04-21T06:56:30.677Z,10.13
2019-04-21T06:58:51.763Z,11.03
2019-04-21T07:01:31.302Z,10.10
2019-04-21T07:04:06.505Z,10.40
2019-04-21T07:06:29.458Z,11.90
2019-04-21T07:09:10.279Z,10.17
2019-04-21T07:11:25.315Z,11.80
2019-04-21T07:14:19.824Z,10.40
2019-04-21T07:16:31.841Z,11.50
2019-04-21T07:19:13.173Z,11.67
2019-04-21T07:21:34.322Z,12.07
2019-04-21T07:24:08.325Z,10.53
2019-04-21T07:26:36.378Z,10.23
2019-04-21T07:29:14.163Z,10.80
2019-04-21T07:31:52.181Z,10.20
2019-04-21T07:34:13.934Z,11.00
2019-04-21T07:36:50.931Z,10.03
2019-04-21T07:39:15.420Z,14.07
2019-04-21T07:41:42.193Z,11.60
2019-04-21T07:44:10.346Z,12.43
2019-04-21T07:46:38.458Z,12.57
2019-04-21T07:49:22.185Z,13.70
2019-04-21T07:51:57.060Z,12.43
2019-04-21T07:54:49.711Z,11.70
2019-04-21T07:56:44.220Z,13.23
2019-04-21T07:59:41.207Z,10.57
2019-04-21T08:02:01.314Z,9.50
2019-04-21T08:07:05.183Z,11.57
2019-04-21T08:09:45.273Z,10.70
2019-04-21T08:12:09.519Z,10.63
2019-04-21T08:14:47.411Z,11.43
2019-04-21T08:17:10.502Z,11.07
2019-04-21T08:19:47.725Z,10.30
2019-04-21T08:22:20.245Z,11.00
2019-04-21T08:24:51.766Z,10.13
2019-04-21T08:27:18.973Z,10.37
2019-04-21T08:29:51.591Z,10.90
2019-04-21T08:32:34.421Z,10.60
2019-04-21T08:35:06.880Z,11.63
2019-04-21T08:37:43.346Z,11.80
2019-04-21T08:40:19.348Z,10.80
2019-04-21T08:42:44.791Z,9.73
2019-04-21T08:45:24.159Z,9.60
2019-04-21T08:47:52.076Z,11.33
2019-04-21T08:50:23.433Z,10.73
2019-04-21T08:52:58.406Z,11.03
2019-04-21T08:55:32.190Z,10.30
2019-04-21T08:58:30.898Z,11.57
2019-04-21T09:01:01.143Z,11.83
2019-04-21T09:03:43.067Z,10.63
2019-04-21T09:06:27.558Z,10.07
2019-04-21T09:08:47.528Z,10.90
2019-04-21T09:11:17.687Z,10.57
2019-04-21T09:14:07.800Z,10.20
2019-04-21T09:16:35.180Z,10.80
2019-04-21T09:19:11.568Z,11.63
2019-04-21T09:21:45.445Z,10.70
2019-04-21T09:24:16.122Z,11.33
2019-04-21T09:26:46.488Z,11.67
2019-04-21T09:29:10.832Z,10.90
2019-04-21T09:31:37.427Z,11.03
2019-04-21T09:34:04.551Z,10.03
2019-04-21T09:36:38.957Z,10.30
2019-04-21T09:39:14.285Z,11.97
2019-04-21T09:41:42.783Z,11.27
2019-04-21T09:44:17.245Z,10.90
2019-04-21T09:46:50.737Z,11.00
2019-04-21T09:49:20.606Z,13.70
2019-04-21T09:51:46.607Z,13.63
2019-04-21T09:54:23.738Z,12.80
2019-04-21T09:57:14.493Z,11.83
2019-04-21T09:59:43.515Z,11.17
2019-04-21T10:02:17.493Z,10.90
2019-04-21T10:04:42.319Z,11.60
2019-04-21T10:07:23.711Z,11.47
2019-04-21T10:09:50.363Z,11.93
2019-04-21T10:12:20.067Z,10.90
2019-04-21T10:14:49.581Z,10.10
2019-04-21T10:17:29.788Z,10.80
2019-04-21T10:20:00.618Z,11.43
2019-04-21T10:22:30.984Z,12.93
2019-04-21T10:25:01.155Z,10.90
2019-04-21T10:27:31.501Z,10.97
2019-04-21T10:30:01.719Z,11.40
2019-04-21T10:32:32.386Z,11.70
2019-04-21T10:35:03.184Z,11.67
2019-04-21T10:37:45.587Z,11.47
2019-04-21T10:40:07.544Z,12.03
2019-04-21T10:42:37.365Z,12.73
2019-04-21T10:45:08.061Z,13.03
2019-04-21T10:47:38.871Z,12.87
2019-04-21T10:50:08.863Z,12.13
2019-04-21T10:52:56.214Z,13.67
2019-04-21T10:55:45.071Z,12.00
2019-04-21T10:58:18.010Z,12.60
2019-04-21T11:00:50.999Z,11.53
2019-04-21T11:03:26.832Z,11.67
2019-04-21T11:05:58.885Z,11.63
2019-04-21T11:08:34.176Z,11.80
2019-04-21T11:11:01.521Z,11.67
2019-04-21T11:13:32.494Z,10.50
2019-04-21T11:16:03.396Z,10.37
2019-04-21T11:18:33.991Z,10.60
2019-04-21T11:21:04.950Z,9.90
2019-04-21T11:23:44.014Z,9.73
2019-04-21T11:26:13.990Z,10.80
2019-04-21T11:28:45.093Z,9.83
2019-04-21T11:31:15.412Z,9.97
2019-04-21T11:33:45.404Z,10.47
2019-04-21T11:36:15.550Z,9.47
2019-04-21T11:39:08.403Z,9.20
2019-04-21T11:41:27.875Z,8.50
2019-04-21T11:43:57.500Z,8.23
2019-04-21T11:46:27.105Z,10.10
2019-04-21T11:48:57.908Z,8.27
2019-04-21T11:51:33.396Z,9.13
2019-04-21T11:54:02.831Z,7.70
2019-04-21T11:56:32.726Z,10.17
2019-04-21T11:59:03.760Z,7.53
2019-04-21T12:01:33.834Z,7.80
2019-04-21T12:04:07.597Z,8.67
2019-04-21T12:06:41.566Z,9.70
2019-04-21T12:09:29.304Z,8.83
2019-04-21T12:11:59.166Z,8.00
2019-04-21T12:14:30.138Z,8.20
2019-04-21T12:17:01.072Z,7.57
2019-04-21T12:19:32.475Z,8.70
2019-04-21T12:22:10.992Z,7.93
2019-04-21T12:24:36.241Z,8.23
2019-04-21T12:27:09.713Z,8.03
2019-04-21T12:29:37.824Z,8.03
2019-04-21T12:32:15.987Z,8.57
2019-04-21T12:34:48.445Z,7.60
2019-04-21T12:37:17.090Z,7.67
2019-04-21T12:39:46.789Z,9.30
2019-04-21T12:42:16.648Z,8.93
2019-04-21T12:44:47.538Z,8.40
2019-04-21T12:47:17.376Z,7.73
2019-04-21T12:49:47.781Z,7.27
2019-04-21T12:52:17.812Z,7.40
2019-04-21T12:54:48.052Z,8.53
2019-04-21T12:57:17.673Z,6.70
2019-04-21T12:59:50.927Z,7.07
2019-04-21T13:02:40.001Z,7.33
2019-04-21T13:05:09.903Z,7.33
2019-04-21T13:07:39.714Z,8.47
2019-04-21T13:10:10.536Z,7.20
2019-04-21T13:12:40.267Z,7.30
2019-04-21T13:15:10.848Z,7.40
2019-04-21T13:17:42.754Z,7.30
2019-04-21T13:20:12.062Z,8.50
2019-04-21T13:22:42.008Z,8.13
2019-04-21T13:25:12.142Z,7.53
2019-04-21T13:27:43.066Z,8.10
2019-04-21T13:30:14.743Z,7.80
2019-04-21T13:32:45.242Z,8.63
2019-04-21T13:35:15.195Z,7.37
2019-04-21T13:37:45.778Z,8.10
2019-04-21T13:40:35.720Z,7.33
2019-04-21T13:42:55.302Z,7.20
2019-04-21T13:45:21.987Z,7.00
2019-04-21T13:47:52.667Z,6.00
2019-04-21T13:50:23.585Z,7.67
2019-04-21T13:52:54.457Z,6.80
2019-04-21T13:55:25.499Z,7.37
2019-04-21T13:57:56.652Z,7.70
2019-04-21T14:00:27.480Z,7.27
2019-04-21T14:02:58.650Z,6.67
2019-04-21T14:05:28.694Z,6.67
2019-04-21T14:08:11.281Z,6.30
2019-04-21T14:10:41.691Z,7.00
2019-04-21T14:13:12.133Z,7.03
2019-04-21T14:15:46.260Z,6.63
2019-04-21T14:18:15.021Z,7.60
2019-04-21T14:20:44.986Z,6.53
2019-04-21T14:23:23.132Z,6.60
2019-04-21T14:25:46.372Z,6.90
2019-04-21T14:28:15.878Z,9.40
2019-04-21T14:30:46.101Z,8.27
2019-04-21T14:33:16.133Z,6.90
2019-04-21T14:35:47.020Z,7.20
2019-04-21T14:38:16.847Z,7.10
2019-04-21T14:40:46.508Z,7.80
2019-04-21T14:43:16.496Z,7.50
2019-04-21T14:45:48.473Z,7.60
2019-04-21T14:48:23.226Z,8.40
2019-04-21T14:50:55.225Z,8.43
2019-04-21T14:53:27.747Z,8.53
2019-04-21T14:55:57.569Z,7.80
2019-04-21T14:58:27.412Z,8.10
2019-04-21T15:01:04.000Z,7.23
2019-04-21T15:03:35.684Z,7.73
2019-04-21T15:06:05.625Z,7.77
2019-04-21T15:08:35.417Z,6.90
2019-04-21T15:11:05.373Z,7.37
2019-04-21T15:13:35.496Z,7.20
2019-04-21T15:16:06.867Z,7.73
2019-04-21T15:18:36.914Z,7.80
2019-04-21T15:21:07.736Z,7.50
2019-04-21T15:23:38.192Z,7.37
2019-04-21T15:26:08.433Z,8.57
2019-04-21T15:28:40.503Z,10.17
2019-04-21T15:31:12.690Z,8.40
2019-04-21T15:33:41.257Z,8.83
2019-04-21T15:36:11.366Z,8.30
2019-04-21T15:38:40.898Z,8.30
2019-04-21T15:41:10.970Z,7.67
2019-04-21T15:43:42.569Z,8.30
2019-04-21T15:46:13.044Z,7.77
2019-04-21T15:48:43.010Z,8.53
2019-04-21T15:51:13.624Z,8.80
2019-04-21T15:53:45.830Z,8.90
2019-04-21T15:56:26.829Z,8.37
2019-04-21T15:59:04.375Z,7.90
2019-04-21T16:01:36.554Z,8.10
2019-04-21T16:04:07.895Z,8.77
2019-04-21T16:06:37.613Z,8.10
2019-04-21T16:09:14.227Z,8.60
2019-04-21T16:11:41.938Z,9.13
2019-04-21T16:14:11.667Z,8.80
2019-04-21T16:16:41.320Z,8.80
2019-04-21T16:19:12.160Z,8.50
2019-04-21T16:21:44.482Z,8.67
2019-04-21T16:24:14.240Z,8.30
2019-04-21T16:26:44.606Z,8.30
2019-04-21T16:29:33.480Z,9.23
2019-04-21T16:32:03.252Z,8.97
2019-04-21T16:34:40.342Z,9.33
2019-04-21T16:37:04.075Z,9.30
2019-04-21T16:39:33.959Z,8.53
2019-04-21T16:42:03.838Z,8.70
2019-04-21T16:44:34.647Z,8.80
2019-04-21T16:47:05.378Z,9.50
2019-04-21T16:49:35.854Z,9.43
2019-04-21T16:52:10.246Z,9.00
2019-04-21T16:54:42.053Z,8.37
2019-04-21T16:57:13.456Z,9.50
2019-04-21T16:59:46.429Z,9.77
2019-04-21T17:02:16.523Z,9.13
2019-04-21T17:04:46.491Z,9.70
2019-04-21T17:07:16.218Z,11.27
2019-04-21T17:09:46.451Z,9.40
2019-04-21T17:12:20.616Z,9.53
2019-04-21T17:15:08.050Z,10.20
2019-04-21T17:17:43.323Z,10.10
2019-04-21T17:19:57.018Z,9.43
2019-04-21T17:22:25.781Z,9.93
2019-04-21T17:24:56.025Z,10.47
2019-04-21T17:27:27.083Z,10.50
2019-04-21T17:29:56.933Z,10.17
2019-04-21T17:32:32.098Z,10.17
2019-04-21T17:34:58.040Z,12.07
2019-04-21T17:37:30.598Z,10.50
2019-04-21T17:40:03.228Z,10.20
2019-04-21T17:42:42.149Z,11.20
2019-04-21T17:45:23.463Z,10.93
2019-04-21T17:47:59.754Z,10.63
2019-04-21T17:50:43.657Z,10.73
2019-04-21T17:53:27.598Z,11.23
2019-04-21T17:56:05.377Z,10.80
2019-04-21T17:58:34.268Z,10.70
2019-04-21T18:01:28.039Z,10.20
2019-04-21T18:03:58.709Z,10.83
2019-04-21T18:06:19.391Z,10.90
2019-04-21T18:08:53.014Z,11.13
2019-04-21T18:11:17.901Z,10.60
2019-04-21T18:13:39.670Z,11.00
2019-04-21T18:16:20.695Z,10.97
2019-04-21T18:18:41.129Z,11.27
2019-04-21T18:21:30.621Z,11.53
2019-04-21T18:24:10.336Z,12.10
2019-04-21T18:26:40.639Z,10.90
2019-04-21T18:29:05.488Z,11.33
2019-04-21T18:31:42.624Z,11.47
2019-04-21T18:34:16.274Z,10.67
2019-04-21T18:36:48.652Z,11.30
2019-04-21T18:39:34.243Z,11.00
2019-04-21T18:42:17.240Z,11.23
2019-04-21T18:45:05.137Z,12.07
2019-04-21T18:47:32.078Z,10.47
2019-04-21T18:49:48.143Z,10.80
2019-04-21T18:52:44.099Z,11.43
2019-04-21T18:55:16.644Z,11.70
2019-04-21T18:57:42.002Z,13.60
2019-04-21T19:00:15.281Z,11.30
2019-04-21T19:02:45.295Z,10.83
2019-04-21T19:05:15.520Z,11.30
2019-04-21T19:08:01.013Z,11.90
2019-04-21T19:10:37.610Z,10.13
2019-04-21T19:13:31.636Z,12.93
2019-04-21T19:15:27.223Z,11.37
2019-04-21T19:20:38.749Z,12.00
2019-04-21T19:23:06.769Z,12.03
2019-04-21T19:25:42.590Z,11.50
2019-04-21T19:28:10.367Z,12.40
2019-04-21T19:30:49.392Z,12.00
2019-04-21T19:33:17.267Z,12.30
2019-04-21T19:35:29.787Z,11.27
2019-04-21T19:38:06.701Z,11.70
2019-04-21T19:40:47.092Z,11.77
2019-04-21T19:43:16.002Z,11.20
2019-04-21T19:45:45.834Z,11.97
2019-04-21T19:48:19.891Z,12.30
2019-04-21T19:51:00.489Z,12.70
2019-04-21T19:53:25.343Z,13.90
2019-04-21T19:55:38.365Z,11.67
2019-04-21T19:58:08.504Z,11.37
2019-04-21T20:00:38.594Z,11.03
2019-04-21T20:03:08.474Z,11.20
2019-04-21T20:05:46.110Z,10.97
2019-04-21T20:08:23.735Z,11.03
2019-04-21T20:11:00.941Z,11.57
2019-04-21T20:13:42.048Z,10.97
2019-04-21T20:16:03.810Z,11.63
2019-04-21T20:18:24.457Z,11.70
2019-04-21T20:20:45.997Z,10.63
2019-04-21T20:23:22.769Z,11.20
2019-04-21T20:25:52.238Z,10.83
2019-04-21T20:28:33.184Z,11.57
2019-04-21T20:31:06.703Z,12.17
2019-04-21T20:36:15.082Z,11.07
2019-04-21T20:38:35.313Z,10.63
2019-04-21T20:41:03.511Z,12.50
2019-04-21T20:43:47.215Z,11.17
2019-04-21T20:46:12.300Z,11.33
2019-04-21T20:48:43.886Z,11.90
2019-04-21T20:51:18.084Z,11.57
2019-04-21T20:53:44.976Z,11.00
2019-04-21T20:56:13.326Z,11.70
2019-04-21T20:58:53.734Z,12.57
2019-04-21T21:03:56.117Z,11.90
2019-04-21T21:06:26.239Z,11.97
2019-04-21T21:08:57.186Z,11.23
2019-04-21T21:11:34.839Z,12.40
2019-04-21T21:14:05.733Z,11.33
2019-04-21T21:16:35.453Z,11.90
2019-04-21T21:21:32.464Z,11.07
2019-04-21T21:24:06.746Z,11.90
2019-04-21T21:26:42.117Z,11.50
2019-04-21T21:28:57.472Z,10.70
2019-04-21T21:31:44.431Z,11.23
2019-04-21T21:34:15.328Z,11.03
2019-04-21T21:36:41.851Z,12.63
2019-04-21T21:39:12.796Z,13.07
2019-04-21T21:41:33.570Z,11.50
2019-04-21T21:44:23.177Z,11.60
2019-04-21T21:47:04.274Z,12.00
2019-04-21T21:49:34.920Z,10.83
2019-04-21T21:52:02.700Z,11.37
2019-04-21T21:54:25.675Z,11.63
2019-04-21T21:56:56.408Z,13.17
2019-04-21T21:59:50.775Z,13.20
2019-04-21T22:02:29.409Z,12.00
2019-04-21T22:05:01.410Z,11.70
2019-04-21T22:07:26.916Z,13.33
2019-04-21T22:09:54.553Z,11.60
2019-04-21T22:12:25.699Z,12.50
2019-04-21T22:14:57.438Z,12.77
2019-04-21T22:17:38.965Z,12.00
2019-04-21T22:20:13.533Z,11.00
2019-04-21T22:22:40.131Z,11.97
2019-04-21T22:25:09.820Z,10.40
2019-04-21T22:27:32.818Z,10.07
2019-04-21T22:30:05.888Z,13.60
2019-04-21T22:32:34.994Z,9.93
2019-04-21T22:35:12.570Z,11.87
2019-04-21T22:37:51.348Z,12.00
2019-04-21T22:40:20.608Z,11.23
2019-04-21T22:42:54.579Z,11.20
2019-04-21T22:45:15.423Z,11.00
2019-04-21T22:47:46.520Z,11.10
2019-04-21T22:50:32.780Z,11.60
2019-04-21T22:53:07.283Z,10.43
2019-04-21T22:55:35.255Z,12.70
2019-04-21T22:58:05.640Z,13.90
2019-04-21T23:00:41.317Z,11.67
2019-04-21T23:03:12.608Z,11.53
2019-04-21T23:05:42.301Z,11.87
2019-04-21T23:08:11.039Z,9.93
2019-04-21T23:10:48.356Z,11.10
2019-04-21T23:13:16.900Z,11.00
2019-04-21T23:15:49.360Z,10.73
2019-04-21T23:18:30.559Z,11.43
2019-04-21T23:21:03.384Z,11.47
2019-04-21T23:23:42.722Z,11.23
2019-04-21T23:26:07.540Z,11.43
2019-04-21T23:28:40.254Z,12.17
2019-04-21T23:31:12.544Z,11.03
2019-04-21T23:33:25.336Z,11.23
2019-04-21T23:36:03.652Z,11.47
2019-04-21T23:38:34.917Z,10.60
2019-04-21T23:41:02.391Z,11.60
2019-04-21T23:43:32.792Z,10.70
2019-04-21T23:46:08.921Z,10.90
2019-04-21T23:48:48.806Z,11.10
2019-04-21T23:51:15.937Z,10.63
2019-04-21T23:53:35.763Z,11.43
2019-04-21T23:56:05.498Z,10.43
2019-04-21T23:58:38.170Z,12.93
